sensor_id;sensor_type;location;lat;lon;timestamp;temperature;humidity
53045;DHT22;38930;52.766;6.884;2023-02-26T00:02:24;0.20;99.90
53045;DHT22;38930;52.766;6.884;2023-02-26T00:04:50;0.40;99.90
53045;DHT22;38930;52.766;6.884;2023-02-26T00:07:15;0.90;99.90
53045;DHT22;38930;52.766;6.884;2023-02-26T00:09:41;-0.10;99.90
53045;DHT22;38930;52.766;6.884;2023-02-26T00:12:10;0.00;99.90
53045;DHT22;38930;52.766;6.884;2023-02-26T00:14:36;-0.10;99.90
53045;DHT22;38930;52.766;6.884;2023-02-26T00:19:30;-0.30;99.90
53045;DHT22;38930;52.766;6.884;2023-02-26T00:21:56;-0.30;99.90
53045;DHT22;38930;52.766;6.884;2023-02-26T00:24:22;-0.30;99.90
53045;DHT22;38930;52.766;6.884;2023-02-26T00:26:47;-0.40;99.90
53045;DHT22;38930;52.766;6.884;2023-02-26T00:29:13;-0.40;99.90
53045;DHT22;38930;52.766;6.884;2023-02-26T00:31:39;-0.50;99.90
53045;DHT22;38930;52.766;6.884;2023-02-26T00:34:05;-0.50;99.90
53045;DHT22;38930;52.766;6.884;2023-02-26T00:36:49;-0.50;99.90
53045;DHT22;38930;52.766;6.884;2023-02-26T00:41:57;-0.50;99.90
53045;DHT22;38930;52.766;6.884;2023-02-26T00:44:23;-0.50;99.90
53045;DHT22;38930;52.766;6.884;2023-02-26T00:46:55;-0.50;99.90
53045;DHT22;38930;52.766;6.884;2023-02-26T00:49:59;-0.30;99.90
53045;DHT22;38930;52.766;6.884;2023-02-26T00:55:09;-0.50;99.90
53045;DHT22;38930;52.766;6.884;2023-02-26T00:57:35;0.30;99.90
53045;DHT22;38930;52.766;6.884;2023-02-26T01:00:02;-0.30;99.90
53045;DHT22;38930;52.766;6.884;2023-02-26T01:02:33;0.60;99.90
53045;DHT22;38930;52.766;6.884;2023-02-26T01:05:02;-0.40;99.90
53045;DHT22;38930;52.766;6.884;2023-02-26T01:07:28;-0.60;99.90
53045;DHT22;38930;52.766;6.884;2023-02-26T01:09:55;-0.50;99.90
53045;DHT22;38930;52.766;6.884;2023-02-26T01:12:20;-0.50;99.90
53045;DHT22;38930;52.766;6.884;2023-02-26T01:14:46;-0.50;99.90
53045;DHT22;38930;52.766;6.884;2023-02-26T01:17:28;-0.50;99.90
53045;DHT22;38930;52.766;6.884;2023-02-26T01:27:50;-0.60;99.90
53045;DHT22;38930;52.766;6.884;2023-02-26T01:30:17;-0.70;99.90
53045;DHT22;38930;52.766;6.884;2023-02-26T01:32:45;-0.70;99.90
53045;DHT22;38930;52.766;6.884;2023-02-26T01:38:00;-0.70;99.90
53045;DHT22;38930;52.766;6.884;2023-02-26T01:40:45;-0.80;99.90
53045;DHT22;38930;52.766;6.884;2023-02-26T01:43:21;-0.70;99.90
53045;DHT22;38930;52.766;6.884;2023-02-26T01:45:56;-0.80;99.90
53045;DHT22;38930;52.766;6.884;2023-02-26T01:51:16;-0.80;99.90
53045;DHT22;38930;52.766;6.884;2023-02-26T01:53:42;-0.90;99.90
53045;DHT22;38930;52.766;6.884;2023-02-26T01:56:15;-0.80;99.90
53045;DHT22;38930;52.766;6.884;2023-02-26T01:58:43;-0.90;99.90
53045;DHT22;38930;52.766;6.884;2023-02-26T02:01:11;-0.30;99.90
53045;DHT22;38930;52.766;6.884;2023-02-26T02:03:39;-1.00;99.90
53045;DHT22;38930;52.766;6.884;2023-02-26T02:06:18;-1.10;99.90
53045;DHT22;38930;52.766;6.884;2023-02-26T02:11:12;-1.10;99.90
53045;DHT22;38930;52.766;6.884;2023-02-26T02:14:18;-1.40;99.90
53045;DHT22;38930;52.766;6.884;2023-02-26T02:17:08;-1.20;99.90
53045;DHT22;38930;52.766;6.884;2023-02-26T02:19:44;-1.20;99.90
53045;DHT22;38930;52.766;6.884;2023-02-26T02:22:39;-1.20;99.90
53045;DHT22;38930;52.766;6.884;2023-02-26T02:25:26;-1.20;99.90
53045;DHT22;38930;52.766;6.884;2023-02-26T02:28:04;-1.20;99.90
53045;DHT22;38930;52.766;6.884;2023-02-26T02:33:20;-1.20;99.90
53045;DHT22;38930;52.766;6.884;2023-02-26T02:35:55;-0.40;99.90
53045;DHT22;38930;52.766;6.884;2023-02-26T02:38:44;-1.20;99.90
53045;DHT22;38930;52.766;6.884;2023-02-26T02:41:20;-1.60;99.90
53045;DHT22;38930;52.766;6.884;2023-02-26T02:43:48;-1.20;99.90
53045;DHT22;38930;52.766;6.884;2023-02-26T02:46:23;-1.20;99.90
53045;DHT22;38930;52.766;6.884;2023-02-26T02:49:19;-1.20;99.90
53045;DHT22;38930;52.766;6.884;2023-02-26T02:51:55;-1.20;99.90
53045;DHT22;38930;52.766;6.884;2023-02-26T02:54:41;-1.20;99.90
53045;DHT22;38930;52.766;6.884;2023-02-26T02:57:23;-1.20;99.90
53045;DHT22;38930;52.766;6.884;2023-02-26T02:59:59;-1.20;99.90
53045;DHT22;38930;52.766;6.884;2023-02-26T03:02:35;-1.20;99.90
53045;DHT22;38930;52.766;6.884;2023-02-26T03:05:03;-1.20;99.90
53045;DHT22;38930;52.766;6.884;2023-02-26T03:07:35;-1.20;99.90
53045;DHT22;38930;52.766;6.884;2023-02-26T03:10:02;-1.50;99.90
53045;DHT22;38930;52.766;6.884;2023-02-26T03:12:30;-1.20;99.90
53045;DHT22;38930;52.766;6.884;2023-02-26T03:14:57;-1.10;99.90
53045;DHT22;38930;52.766;6.884;2023-02-26T03:17:26;-1.10;99.90
53045;DHT22;38930;52.766;6.884;2023-02-26T03:20:08;-0.60;99.90
53045;DHT22;38930;52.766;6.884;2023-02-26T03:22:40;-1.20;99.90
53045;DHT22;38930;52.766;6.884;2023-02-26T03:28:30;-1.20;99.90
53045;DHT22;38930;52.766;6.884;2023-02-26T03:33:18;-1.20;99.90
53045;DHT22;38930;52.766;6.884;2023-02-26T03:36:00;-1.20;99.90
53045;DHT22;38930;52.766;6.884;2023-02-26T03:38:38;-1.20;99.90
53045;DHT22;38930;52.766;6.884;2023-02-26T03:41:18;-1.20;99.90
53045;DHT22;38930;52.766;6.884;2023-02-26T03:44:05;-1.20;99.90
53045;DHT22;38930;52.766;6.884;2023-02-26T03:46:42;-1.20;99.90
53045;DHT22;38930;52.766;6.884;2023-02-26T03:49:19;-1.20;99.90
53045;DHT22;38930;52.766;6.884;2023-02-26T03:51:46;-1.20;99.90
53045;DHT22;38930;52.766;6.884;2023-02-26T03:54:30;-1.20;99.90
53045;DHT22;38930;52.766;6.884;2023-02-26T03:56:57;-1.30;99.90
53045;DHT22;38930;52.766;6.884;2023-02-26T03:59:23;-1.30;99.90
53045;DHT22;38930;52.766;6.884;2023-02-26T04:02:11;-1.30;99.90
53045;DHT22;38930;52.766;6.884;2023-02-26T04:04:48;-1.30;99.90
53045;DHT22;38930;52.766;6.884;2023-02-26T04:07:16;-1.40;99.90
53045;DHT22;38930;52.766;6.884;2023-02-26T04:09:45;-0.90;99.90
53045;DHT22;38930;52.766;6.884;2023-02-26T04:12:11;-1.70;99.90
53045;DHT22;38930;52.766;6.884;2023-02-26T04:14:37;-1.30;99.90
53045;DHT22;38930;52.766;6.884;2023-02-26T04:17:03;-1.50;99.90
53045;DHT22;38930;52.766;6.884;2023-02-26T04:19:29;-1.40;99.90
53045;DHT22;38930;52.766;6.884;2023-02-26T04:21:55;-1.60;99.90
53045;DHT22;38930;52.766;6.884;2023-02-26T04:24:21;-1.50;99.90
53045;DHT22;38930;52.766;6.884;2023-02-26T04:26:46;-2.10;99.90
53045;DHT22;38930;52.766;6.884;2023-02-26T04:29:12;-2.30;99.90
53045;DHT22;38930;52.766;6.884;2023-02-26T04:31:37;-1.50;99.90
53045;DHT22;38930;52.766;6.884;2023-02-26T04:34:03;-1.60;99.90
53045;DHT22;38930;52.766;6.884;2023-02-26T04:36:29;-1.50;99.90
53045;DHT22;38930;52.766;6.884;2023-02-26T04:38:55;-1.50;99.90
53045;DHT22;38930;52.766;6.884;2023-02-26T04:41:21;-1.50;99.90
53045;DHT22;38930;52.766;6.884;2023-02-26T04:43:47;-1.10;99.90
53045;DHT22;38930;52.766;6.884;2023-02-26T04:46:12;-1.60;99.90
53045;DHT22;38930;52.766;6.884;2023-02-26T04:48:38;-1.60;99.90
53045;DHT22;38930;52.766;6.884;2023-02-26T04:51:04;-1.50;99.90
53045;DHT22;38930;52.766;6.884;2023-02-26T04:53:29;-1.50;99.90
53045;DHT22;38930;52.766;6.884;2023-02-26T04:55:55;-1.10;99.90
53045;DHT22;38930;52.766;6.884;2023-02-26T05:00:51;-1.50;99.90
53045;DHT22;38930;52.766;6.884;2023-02-26T05:03:18;0.00;99.90
53045;DHT22;38930;52.766;6.884;2023-02-26T05:05:44;-1.10;99.90
53045;DHT22;38930;52.766;6.884;2023-02-26T05:08:10;-1.50;99.90
53045;DHT22;38930;52.766;6.884;2023-02-26T05:10:36;-1.20;99.90
53045;DHT22;38930;52.766;6.884;2023-02-26T05:13:01;-1.70;99.90
53045;DHT22;38930;52.766;6.884;2023-02-26T05:15:27;-1.10;99.90
53045;DHT22;38930;52.766;6.884;2023-02-26T05:17:53;-1.90;99.90
53045;DHT22;38930;52.766;6.884;2023-02-26T05:20:18;-1.60;99.90
53045;DHT22;38930;52.766;6.884;2023-02-26T05:22:44;-1.50;99.90
53045;DHT22;38930;52.766;6.884;2023-02-26T05:25:10;-1.80;99.90
53045;DHT22;38930;52.766;6.884;2023-02-26T05:27:39;-0.80;99.90
53045;DHT22;38930;52.766;6.884;2023-02-26T05:30:07;0.00;99.90
53045;DHT22;38930;52.766;6.884;2023-02-26T05:32:33;-1.50;99.90
53045;DHT22;38930;52.766;6.884;2023-02-26T05:34:59;-1.60;99.90
53045;DHT22;38930;52.766;6.884;2023-02-26T05:37:24;-0.80;99.90
53045;DHT22;38930;52.766;6.884;2023-02-26T05:39:50;-1.60;99.90
53045;DHT22;38930;52.766;6.884;2023-02-26T05:42:16;-1.60;99.90
53045;DHT22;38930;52.766;6.884;2023-02-26T05:44:41;-1.70;99.90
53045;DHT22;38930;52.766;6.884;2023-02-26T05:47:07;-1.00;99.90
53045;DHT22;38930;52.766;6.884;2023-02-26T05:49:33;-1.70;99.90
53045;DHT22;38930;52.766;6.884;2023-02-26T05:51:58;-1.90;99.90
53045;DHT22;38930;52.766;6.884;2023-02-26T05:54:24;-1.80;99.90
53045;DHT22;38930;52.766;6.884;2023-02-26T05:56:50;-1.80;99.90
53045;DHT22;38930;52.766;6.884;2023-02-26T05:59:16;-1.80;99.90
53045;DHT22;38930;52.766;6.884;2023-02-26T06:01:42;-1.80;99.90
53045;DHT22;38930;52.766;6.884;2023-02-26T06:04:08;-1.80;99.90
53045;DHT22;38930;52.766;6.884;2023-02-26T06:06:34;-1.80;99.90
53045;DHT22;38930;52.766;6.884;2023-02-26T06:08:59;-1.70;99.90
53045;DHT22;38930;52.766;6.884;2023-02-26T06:11:30;-2.30;99.90
53045;DHT22;38930;52.766;6.884;2023-02-26T06:13:56;-1.80;99.90
53045;DHT22;38930;52.766;6.884;2023-02-26T06:16:22;-1.80;99.90
53045;DHT22;38930;52.766;6.884;2023-02-26T06:18:48;-1.70;99.90
53045;DHT22;38930;52.766;6.884;2023-02-26T06:21:15;-1.80;99.90
53045;DHT22;38930;52.766;6.884;2023-02-26T06:23:41;-1.80;99.90
53045;DHT22;38930;52.766;6.884;2023-02-26T06:26:06;-1.70;99.90
53045;DHT22;38930;52.766;6.884;2023-02-26T06:28:32;-1.50;99.90
53045;DHT22;38930;52.766;6.884;2023-02-26T06:30:58;-1.70;99.90
53045;DHT22;38930;52.766;6.884;2023-02-26T06:33:24;-1.80;99.90
53045;DHT22;38930;52.766;6.884;2023-02-26T06:35:50;-1.20;99.90
53045;DHT22;38930;52.766;6.884;2023-02-26T06:38:16;-1.20;99.90
53045;DHT22;38930;52.766;6.884;2023-02-26T06:40:42;-1.80;99.90
53045;DHT22;38930;52.766;6.884;2023-02-26T06:43:08;-1.90;99.90
53045;DHT22;38930;52.766;6.884;2023-02-26T06:45:33;-1.90;99.90
53045;DHT22;38930;52.766;6.884;2023-02-26T06:47:59;-1.90;99.90
53045;DHT22;38930;52.766;6.884;2023-02-26T06:50:25;-1.90;99.90
53045;DHT22;38930;52.766;6.884;2023-02-26T06:52:50;-1.80;99.90
53045;DHT22;38930;52.766;6.884;2023-02-26T06:55:16;-1.60;99.90
53045;DHT22;38930;52.766;6.884;2023-02-26T06:57:42;-1.90;99.90
53045;DHT22;38930;52.766;6.884;2023-02-26T07:00:08;-1.80;99.90
53045;DHT22;38930;52.766;6.884;2023-02-26T07:02:35;-1.80;99.90
53045;DHT22;38930;52.766;6.884;2023-02-26T07:05:00;-1.60;99.90
53045;DHT22;38930;52.766;6.884;2023-02-26T07:07:26;-1.80;99.90
53045;DHT22;38930;52.766;6.884;2023-02-26T07:09:52;-1.70;99.90
53045;DHT22;38930;52.766;6.884;2023-02-26T07:12:17;-1.20;99.90
53045;DHT22;38930;52.766;6.884;2023-02-26T07:14:43;-0.60;99.90
53045;DHT22;38930;52.766;6.884;2023-02-26T07:17:10;-1.60;99.90
53045;DHT22;38930;52.766;6.884;2023-02-26T07:19:51;-0.80;99.90
53045;DHT22;38930;52.766;6.884;2023-02-26T07:22:18;-1.50;99.90
53045;DHT22;38930;52.766;6.884;2023-02-26T07:24:44;-1.50;99.90
53045;DHT22;38930;52.766;6.884;2023-02-26T07:27:10;-1.40;99.90
53045;DHT22;38930;52.766;6.884;2023-02-26T07:29:36;-1.80;99.90
53045;DHT22;38930;52.766;6.884;2023-02-26T07:32:03;-1.20;99.90
53045;DHT22;38930;52.766;6.884;2023-02-26T07:34:29;-1.20;99.90
53045;DHT22;38930;52.766;6.884;2023-02-26T07:36:54;-1.10;99.90
53045;DHT22;38930;52.766;6.884;2023-02-26T07:39:20;-1.00;99.90
53045;DHT22;38930;52.766;6.884;2023-02-26T07:41:46;-1.00;99.90
53045;DHT22;38930;52.766;6.884;2023-02-26T07:44:11;-0.90;99.90
53045;DHT22;38930;52.766;6.884;2023-02-26T07:46:37;-0.80;99.90
53045;DHT22;38930;52.766;6.884;2023-02-26T07:49:02;-0.70;99.90
53045;DHT22;38930;52.766;6.884;2023-02-26T07:51:28;-0.70;99.90
53045;DHT22;38930;52.766;6.884;2023-02-26T07:53:54;-0.60;99.90
53045;DHT22;38930;52.766;6.884;2023-02-26T07:56:19;-0.50;99.90
53045;DHT22;38930;52.766;6.884;2023-02-26T07:58:45;-0.40;99.90
53045;DHT22;38930;52.766;6.884;2023-02-26T08:01:11;-0.60;99.90
53045;DHT22;38930;52.766;6.884;2023-02-26T08:03:36;-0.10;99.90
53045;DHT22;38930;52.766;6.884;2023-02-26T08:06:02;0.10;99.90
53045;DHT22;38930;52.766;6.884;2023-02-26T08:08:29;0.20;99.90
53045;DHT22;38930;52.766;6.884;2023-02-26T08:10:55;0.30;99.90
53045;DHT22;38930;52.766;6.884;2023-02-26T08:13:20;0.40;99.90
53045;DHT22;38930;52.766;6.884;2023-02-26T08:15:49;0.60;99.90
53045;DHT22;38930;52.766;6.884;2023-02-26T08:18:15;0.60;99.90
53045;DHT22;38930;52.766;6.884;2023-02-26T08:20:40;0.60;99.90
53045;DHT22;38930;52.766;6.884;2023-02-26T08:23:06;1.10;99.90
53045;DHT22;38930;52.766;6.884;2023-02-26T08:25:32;0.80;99.90
53045;DHT22;38930;52.766;6.884;2023-02-26T08:27:57;0.80;99.90
53045;DHT22;38930;52.766;6.884;2023-02-26T08:30:23;0.90;99.90
53045;DHT22;38930;52.766;6.884;2023-02-26T08:32:49;1.20;99.90
53045;DHT22;38930;52.766;6.884;2023-02-26T08:35:15;1.00;99.90
53045;DHT22;38930;52.766;6.884;2023-02-26T08:37:41;1.00;99.90
53045;DHT22;38930;52.766;6.884;2023-02-26T08:40:08;1.60;99.90
53045;DHT22;38930;52.766;6.884;2023-02-26T08:42:33;1.20;99.90
53045;DHT22;38930;52.766;6.884;2023-02-26T08:44:59;1.20;99.90
53045;DHT22;38930;52.766;6.884;2023-02-26T08:47:25;1.30;99.90
53045;DHT22;38930;52.766;6.884;2023-02-26T08:49:50;1.40;99.90
53045;DHT22;38930;52.766;6.884;2023-02-26T08:52:16;1.50;99.90
53045;DHT22;38930;52.766;6.884;2023-02-26T08:54:41;1.60;99.90
53045;DHT22;38930;52.766;6.884;2023-02-26T08:57:07;1.70;99.90
53045;DHT22;38930;52.766;6.884;2023-02-26T08:59:33;1.80;99.90
53045;DHT22;38930;52.766;6.884;2023-02-26T09:01:58;2.70;99.90
53045;DHT22;38930;52.766;6.884;2023-02-26T09:04:24;1.90;99.90
53045;DHT22;38930;52.766;6.884;2023-02-26T09:06:51;2.00;99.90
53045;DHT22;38930;52.766;6.884;2023-02-26T09:09:17;2.10;99.90
53045;DHT22;38930;52.766;6.884;2023-02-26T09:11:44;2.20;99.90
53045;DHT22;38930;52.766;6.884;2023-02-26T09:14:10;2.30;99.90
53045;DHT22;38930;52.766;6.884;2023-02-26T09:16:35;2.40;99.90
53045;DHT22;38930;52.766;6.884;2023-02-26T09:19:02;2.50;99.90
53045;DHT22;38930;52.766;6.884;2023-02-26T09:21:28;2.60;99.90
53045;DHT22;38930;52.766;6.884;2023-02-26T09:23:54;2.80;99.90
53045;DHT22;38930;52.766;6.884;2023-02-26T09:26:20;2.70;99.90
53045;DHT22;38930;52.766;6.884;2023-02-26T09:28:45;2.70;99.90
53045;DHT22;38930;52.766;6.884;2023-02-26T09:31:11;2.80;99.90
53045;DHT22;38930;52.766;6.884;2023-02-26T09:33:37;2.90;99.90
53045;DHT22;38930;52.766;6.884;2023-02-26T09:36:02;2.90;99.90
53045;DHT22;38930;52.766;6.884;2023-02-26T09:38:28;3.00;99.90
53045;DHT22;38930;52.766;6.884;2023-02-26T09:41:21;3.80;99.90
53045;DHT22;38930;52.766;6.884;2023-02-26T09:47:01;3.20;99.90
53045;DHT22;38930;52.766;6.884;2023-02-26T09:49:58;3.30;99.90
53045;DHT22;38930;52.766;6.884;2023-02-26T09:52:46;3.40;99.90
53045;DHT22;38930;52.766;6.884;2023-02-26T09:58:02;3.50;99.90
53045;DHT22;38930;52.766;6.884;2023-02-26T10:00:40;3.50;99.90
53045;DHT22;38930;52.766;6.884;2023-02-26T10:04:00;3.50;99.90
53045;DHT22;38930;52.766;6.884;2023-02-26T10:09:05;3.60;99.90
53045;DHT22;38930;52.766;6.884;2023-02-26T10:11:55;3.70;99.90
53045;DHT22;38930;52.766;6.884;2023-02-26T10:14:33;3.80;99.90
53045;DHT22;38930;52.766;6.884;2023-02-26T10:17:06;4.00;99.90
53045;DHT22;38930;52.766;6.884;2023-02-26T10:19:41;4.00;99.90
53045;DHT22;38930;52.766;6.884;2023-02-26T10:22:27;4.10;99.90
53045;DHT22;38930;52.766;6.884;2023-02-26T10:25:06;4.10;99.90
53045;DHT22;38930;52.766;6.884;2023-02-26T10:33:29;4.20;99.90
53045;DHT22;38930;52.766;6.884;2023-02-26T10:36:04;4.30;99.90
53045;DHT22;38930;52.766;6.884;2023-02-26T10:38:33;4.30;99.90
53045;DHT22;38930;52.766;6.884;2023-02-26T10:41:07;4.30;99.90
53045;DHT22;38930;52.766;6.884;2023-02-26T10:43:40;4.40;99.90
53045;DHT22;38930;52.766;6.884;2023-02-26T10:52:04;4.70;99.90
53045;DHT22;38930;52.766;6.884;2023-02-26T10:55:03;4.70;99.90
53045;DHT22;38930;52.766;6.884;2023-02-26T10:57:30;4.70;99.90
53045;DHT22;38930;52.766;6.884;2023-02-26T10:59:59;4.70;99.90
53045;DHT22;38930;52.766;6.884;2023-02-26T11:02:40;4.60;99.90
53045;DHT22;38930;52.766;6.884;2023-02-26T11:05:46;5.60;99.90
53045;DHT22;38930;52.766;6.884;2023-02-26T11:08:25;4.60;99.90
53045;DHT22;38930;52.766;6.884;2023-02-26T11:10:54;4.70;99.90
53045;DHT22;38930;52.766;6.884;2023-02-26T11:13:21;4.90;99.90
53045;DHT22;38930;52.766;6.884;2023-02-26T11:15:50;5.00;99.90
53045;DHT22;38930;52.766;6.884;2023-02-26T11:18:41;5.00;99.90
53045;DHT22;38930;52.766;6.884;2023-02-26T11:21:05;5.10;99.90
53045;DHT22;38930;52.766;6.884;2023-02-26T11:23:32;5.00;99.90
53045;DHT22;38930;52.766;6.884;2023-02-26T11:26:15;5.00;99.90
53045;DHT22;38930;52.766;6.884;2023-02-26T11:28:46;5.10;99.90
53045;DHT22;38930;52.766;6.884;2023-02-26T11:31:16;5.00;99.90
53045;DHT22;38930;52.766;6.884;2023-02-26T11:33:50;5.10;99.90
53045;DHT22;38930;52.766;6.884;2023-02-26T11:36:21;5.10;99.90
53045;DHT22;38930;52.766;6.884;2023-02-26T11:38:54;5.10;99.90
53045;DHT22;38930;52.766;6.884;2023-02-26T11:41:22;5.30;99.90
53045;DHT22;38930;52.766;6.884;2023-02-26T11:46:24;5.40;99.90
53045;DHT22;38930;52.766;6.884;2023-02-26T11:48:52;5.40;99.90
53045;DHT22;38930;52.766;6.884;2023-02-26T11:51:23;6.40;99.90
53045;DHT22;38930;52.766;6.884;2023-02-26T11:53:57;5.70;99.90
53045;DHT22;38930;52.766;6.884;2023-02-26T11:56:38;5.70;99.90
53045;DHT22;38930;52.766;6.884;2023-02-26T11:59:21;5.80;99.90
53045;DHT22;38930;52.766;6.884;2023-02-26T12:01:48;5.90;99.90
53045;DHT22;38930;52.766;6.884;2023-02-26T12:04:18;6.00;99.90
53045;DHT22;38930;52.766;6.884;2023-02-26T12:06:47;6.00;99.90
53045;DHT22;38930;52.766;6.884;2023-02-26T12:09:14;6.00;99.90
53045;DHT22;38930;52.766;6.884;2023-02-26T12:12:10;6.00;99.90
53045;DHT22;38930;52.766;6.884;2023-02-26T12:24:03;6.10;99.90
53045;DHT22;38930;52.766;6.884;2023-02-26T12:26:39;6.20;99.90
53045;DHT22;38930;52.766;6.884;2023-02-26T12:29:37;6.40;99.90
53045;DHT22;38930;52.766;6.884;2023-02-26T12:34:54;6.30;99.90
53045;DHT22;38930;52.766;6.884;2023-02-26T12:40:03;6.50;99.90
53045;DHT22;38930;52.766;6.884;2023-02-26T12:46:07;6.70;99.90
53045;DHT22;38930;52.766;6.884;2023-02-26T12:48:49;6.90;99.90
53045;DHT22;38930;52.766;6.884;2023-02-26T13:01:24;7.10;99.90
53045;DHT22;38930;52.766;6.884;2023-02-26T13:10:21;6.20;99.90
53045;DHT22;38930;52.766;6.884;2023-02-26T13:18:45;6.60;99.90
53045;DHT22;38930;52.766;6.884;2023-02-26T13:23:55;6.70;99.90
53045;DHT22;38930;52.766;6.884;2023-02-26T13:26:22;6.60;99.90
53045;DHT22;38930;52.766;6.884;2023-02-26T13:28:56;6.60;99.90
53045;DHT22;38930;52.766;6.884;2023-02-26T13:31:42;6.50;99.90
53045;DHT22;38930;52.766;6.884;2023-02-26T13:34:16;7.10;99.90
53045;DHT22;38930;52.766;6.884;2023-02-26T13:36:44;6.40;99.90
53045;DHT22;38930;52.766;6.884;2023-02-26T13:50:25;6.20;99.90
53045;DHT22;38930;52.766;6.884;2023-02-26T13:53:00;6.10;99.90
53045;DHT22;38930;52.766;6.884;2023-02-26T13:55:47;6.00;99.90
53045;DHT22;38930;52.766;6.884;2023-02-26T13:58:27;6.10;99.90
53045;DHT22;38930;52.766;6.884;2023-02-26T14:01:26;5.80;99.90
53045;DHT22;38930;52.766;6.884;2023-02-26T14:06:41;5.80;99.90
53045;DHT22;38930;52.766;6.884;2023-02-26T14:22:47;6.10;99.90
53045;DHT22;38930;52.766;6.884;2023-02-26T14:25:33;6.20;99.90
53045;DHT22;38930;52.766;6.884;2023-02-26T14:33:30;5.90;99.90
53045;DHT22;38930;52.766;6.884;2023-02-26T14:35:56;5.90;99.90
53045;DHT22;38930;52.766;6.884;2023-02-26T14:38:25;5.80;99.90
53045;DHT22;38930;52.766;6.884;2023-02-26T14:41:04;5.90;99.90
53045;DHT22;38930;52.766;6.884;2023-02-26T14:43:42;5.90;99.90
53045;DHT22;38930;52.766;6.884;2023-02-26T14:46:10;5.90;99.90
53045;DHT22;38930;52.766;6.884;2023-02-26T14:48:37;6.00;99.90
53045;DHT22;38930;52.766;6.884;2023-02-26T14:54:09;5.90;99.90
53045;DHT22;38930;52.766;6.884;2023-02-26T15:04:40;5.60;99.90
53045;DHT22;38930;52.766;6.884;2023-02-26T15:07:36;5.60;99.90
53045;DHT22;38930;52.766;6.884;2023-02-26T15:10:17;5.40;99.90
53045;DHT22;38930;52.766;6.884;2023-02-26T15:15:56;5.50;99.90
53045;DHT22;38930;52.766;6.884;2023-02-26T15:23:50;5.00;99.90
53045;DHT22;38930;52.766;6.884;2023-02-26T15:26:36;5.10;99.90
53045;DHT22;38930;52.766;6.884;2023-02-26T15:29:07;5.20;99.90
53045;DHT22;38930;52.766;6.884;2023-02-26T15:31:45;6.10;99.90
53045;DHT22;38930;52.766;6.884;2023-02-26T15:34:13;5.00;99.90
53045;DHT22;38930;52.766;6.884;2023-02-26T15:36:44;4.90;99.90
53045;DHT22;38930;52.766;6.884;2023-02-26T15:39:14;4.70;99.90
53045;DHT22;38930;52.766;6.884;2023-02-26T15:41:42;4.80;99.90
53045;DHT22;38930;52.766;6.884;2023-02-26T15:44:13;4.70;99.90
53045;DHT22;38930;52.766;6.884;2023-02-26T15:46:43;4.70;99.90
53045;DHT22;38930;52.766;6.884;2023-02-26T15:49:32;4.70;99.90
53045;DHT22;38930;52.766;6.884;2023-02-26T15:52:00;4.70;99.90
53045;DHT22;38930;52.766;6.884;2023-02-26T15:54:40;4.70;99.90
53045;DHT22;38930;52.766;6.884;2023-02-26T15:57:08;4.60;99.90
53045;DHT22;38930;52.766;6.884;2023-02-26T15:59:38;4.60;99.90
53045;DHT22;38930;52.766;6.884;2023-02-26T16:02:12;5.30;99.90
53045;DHT22;38930;52.766;6.884;2023-02-26T16:04:38;4.50;99.90
53045;DHT22;38930;52.766;6.884;2023-02-26T16:07:03;4.40;99.90
53045;DHT22;38930;52.766;6.884;2023-02-26T16:09:43;4.40;99.90
53045;DHT22;38930;52.766;6.884;2023-02-26T16:12:16;4.40;99.90
53045;DHT22;38930;52.766;6.884;2023-02-26T16:14:56;4.30;99.90
53045;DHT22;38930;52.766;6.884;2023-02-26T16:17:26;4.30;99.90
53045;DHT22;38930;52.766;6.884;2023-02-26T16:19:55;4.20;99.90
53045;DHT22;38930;52.766;6.884;2023-02-26T16:22:36;4.10;99.90
53045;DHT22;38930;52.766;6.884;2023-02-26T16:27:39;4.30;99.90
53045;DHT22;38930;52.766;6.884;2023-02-26T16:30:06;3.90;99.90
53045;DHT22;38930;52.766;6.884;2023-02-26T16:32:33;3.90;99.90
53045;DHT22;38930;52.766;6.884;2023-02-26T16:35:19;3.80;99.90
53045;DHT22;38930;52.766;6.884;2023-02-26T16:37:51;3.80;99.90
53045;DHT22;38930;52.766;6.884;2023-02-26T16:40:29;3.70;99.90
53045;DHT22;38930;52.766;6.884;2023-02-26T16:45:52;3.60;99.90
53045;DHT22;38930;52.766;6.884;2023-02-26T16:51:22;3.50;99.90
53045;DHT22;38930;52.766;6.884;2023-02-26T16:53:58;3.50;99.90
53045;DHT22;38930;52.766;6.884;2023-02-26T17:00:31;3.40;99.90
53045;DHT22;38930;52.766;6.884;2023-02-26T17:06:16;3.40;99.90
53045;DHT22;38930;52.766;6.884;2023-02-26T17:12:47;3.20;99.90
53045;DHT22;38930;52.766;6.884;2023-02-26T17:15:33;3.20;99.90
53045;DHT22;38930;52.766;6.884;2023-02-26T17:18:10;3.20;99.90
53045;DHT22;38930;52.766;6.884;2023-02-26T17:23:31;3.10;99.90
53045;DHT22;38930;52.766;6.884;2023-02-26T17:26:09;3.00;99.90
53045;DHT22;38930;52.766;6.884;2023-02-26T17:28:43;2.90;99.90
53045;DHT22;38930;52.766;6.884;2023-02-26T17:31:12;2.90;99.90
53045;DHT22;38930;52.766;6.884;2023-02-26T17:33:48;2.90;99.90
53045;DHT22;38930;52.766;6.884;2023-02-26T17:36:16;2.90;99.90
53045;DHT22;38930;52.766;6.884;2023-02-26T17:38:43;2.90;99.90
53045;DHT22;38930;52.766;6.884;2023-02-26T17:41:16;2.80;99.90
53045;DHT22;38930;52.766;6.884;2023-02-26T17:43:42;3.70;99.90
53045;DHT22;38930;52.766;6.884;2023-02-26T17:46:10;2.80;99.90
53045;DHT22;38930;52.766;6.884;2023-02-26T17:48:36;2.80;99.90
53045;DHT22;38930;52.766;6.884;2023-02-26T17:51:02;2.90;99.90
53045;DHT22;38930;52.766;6.884;2023-02-26T17:53:28;2.80;99.90
53045;DHT22;38930;52.766;6.884;2023-02-26T17:55:58;2.80;99.90
53045;DHT22;38930;52.766;6.884;2023-02-26T17:58:32;2.80;99.90
53045;DHT22;38930;52.766;6.884;2023-02-26T18:00:58;2.80;99.90
53045;DHT22;38930;52.766;6.884;2023-02-26T18:03:25;2.90;99.90
53045;DHT22;38930;52.766;6.884;2023-02-26T18:05:52;2.80;99.90
53045;DHT22;38930;52.766;6.884;2023-02-26T18:08:28;2.80;99.90
53045;DHT22;38930;52.766;6.884;2023-02-26T18:10:55;2.80;99.90
53045;DHT22;38930;52.766;6.884;2023-02-26T18:13:21;2.80;99.90
53045;DHT22;38930;52.766;6.884;2023-02-26T18:15:48;2.80;99.90
53045;DHT22;38930;52.766;6.884;2023-02-26T18:18:15;2.80;99.90
53045;DHT22;38930;52.766;6.884;2023-02-26T18:20:41;2.80;99.90
53045;DHT22;38930;52.766;6.884;2023-02-26T18:23:08;2.80;99.90
53045;DHT22;38930;52.766;6.884;2023-02-26T18:25:38;2.80;99.90
53045;DHT22;38930;52.766;6.884;2023-02-26T18:28:04;2.80;99.90
53045;DHT22;38930;52.766;6.884;2023-02-26T18:30:35;2.80;99.90
53045;DHT22;38930;52.766;6.884;2023-02-26T18:33:02;2.80;99.90
53045;DHT22;38930;52.766;6.884;2023-02-26T18:35:29;2.70;99.90
53045;DHT22;38930;52.766;6.884;2023-02-26T18:37:55;3.60;99.90
53045;DHT22;38930;52.766;6.884;2023-02-26T18:40:23;2.70;99.90
53045;DHT22;38930;52.766;6.884;2023-02-26T18:42:50;2.70;99.90
53045;DHT22;38930;52.766;6.884;2023-02-26T18:45:17;2.70;99.90
53045;DHT22;38930;52.766;6.884;2023-02-26T18:47:43;2.70;99.90
53045;DHT22;38930;52.766;6.884;2023-02-26T18:50:16;2.70;99.90
53045;DHT22;38930;52.766;6.884;2023-02-26T18:52:43;3.50;99.90
53045;DHT22;38930;52.766;6.884;2023-02-26T18:55:11;2.70;99.90
53045;DHT22;38930;52.766;6.884;2023-02-26T18:57:38;2.60;99.90
53045;DHT22;38930;52.766;6.884;2023-02-26T19:00:07;2.60;99.90